sensor_id;sensor_type;location;lat;lon;timestamp;P1;durP1;ratioP1;P2;durP2;ratioP2
38805;SDS011;25635;51.146;17.162;2022-12-01T00:00:52;52.60;;;29.87;;
38805;SDS011;25635;51.146;17.162;2022-12-01T00:03:19;48.00;;;28.43;;
38805;SDS011;25635;51.146;17.162;2022-12-01T00:05:46;48.53;;;28.10;;
38805;SDS011;25635;51.146;17.162;2022-12-01T00:08:13;48.43;;;28.00;;
38805;SDS011;25635;51.146;17.162;2022-12-01T00:10:39;44.40;;;28.20;;
38805;SDS011;25635;51.146;17.162;2022-12-01T00:13:05;48.23;;;28.87;;
38805;SDS011;25635;51.146;17.162;2022-12-01T00:15:32;50.03;;;28.10;;
38805;SDS011;25635;51.146;17.162;2022-12-01T00:18:05;43.17;;;25.70;;
38805;SDS011;25635;51.146;17.162;2022-12-01T00:20:34;49.80;;;28.53;;
38805;SDS011;25635;51.146;17.162;2022-12-01T00:23:01;44.67;;;27.63;;
38805;SDS011;25635;51.146;17.162;2022-12-01T00:25:27;48.30;;;27.70;;
38805;SDS011;25635;51.146;17.162;2022-12-01T00:27:54;44.63;;;27.43;;
38805;SDS011;25635;51.146;17.162;2022-12-01T00:30:21;47.50;;;26.27;;
38805;SDS011;25635;51.146;17.162;2022-12-01T00:32:47;46.50;;;27.10;;
38805;SDS011;25635;51.146;17.162;2022-12-01T00:35:14;50.10;;;28.23;;
38805;SDS011;25635;51.146;17.162;2022-12-01T00:37:41;44.77;;;26.10;;
38805;SDS011;25635;51.146;17.162;2022-12-01T00:40:08;50.30;;;28.93;;
38805;SDS011;25635;51.146;17.162;2022-12-01T00:42:36;47.00;;;27.70;;
38805;SDS011;25635;51.146;17.162;2022-12-01T00:45:03;54.97;;;28.93;;
38805;SDS011;25635;51.146;17.162;2022-12-01T00:47:30;47.83;;;27.67;;
38805;SDS011;25635;51.146;17.162;2022-12-01T00:49:56;46.50;;;27.83;;
38805;SDS011;25635;51.146;17.162;2022-12-01T00:52:23;44.87;;;27.43;;
38805;SDS011;25635;51.146;17.162;2022-12-01T00:54:49;46.17;;;27.70;;
38805;SDS011;25635;51.146;17.162;2022-12-01T00:57:15;39.33;;;23.87;;
38805;SDS011;25635;51.146;17.162;2022-12-01T00:59:41;41.60;;;24.97;;
38805;SDS011;25635;51.146;17.162;2022-12-01T01:02:07;41.07;;;23.93;;
38805;SDS011;25635;51.146;17.162;2022-12-01T01:04:34;43.07;;;26.03;;
38805;SDS011;25635;51.146;17.162;2022-12-01T01:07:01;38.53;;;22.90;;
38805;SDS011;25635;51.146;17.162;2022-12-01T01:09:28;37.57;;;22.70;;
38805;SDS011;25635;51.146;17.162;2022-12-01T01:11:57;40.13;;;23.50;;
38805;SDS011;25635;51.146;17.162;2022-12-01T01:14:23;41.40;;;23.63;;
38805;SDS011;25635;51.146;17.162;2022-12-01T01:16:50;40.63;;;23.83;;
38805;SDS011;25635;51.146;17.162;2022-12-01T01:19:16;40.27;;;22.47;;
38805;SDS011;25635;51.146;17.162;2022-12-01T01:21:43;40.67;;;23.83;;
38805;SDS011;25635;51.146;17.162;2022-12-01T01:24:09;40.40;;;23.83;;
38805;SDS011;25635;51.146;17.162;2022-12-01T01:26:35;41.70;;;23.80;;
38805;SDS011;25635;51.146;17.162;2022-12-01T01:29:03;40.87;;;23.20;;
38805;SDS011;25635;51.146;17.162;2022-12-01T01:31:32;37.27;;;22.97;;
38805;SDS011;25635;51.146;17.162;2022-12-01T01:33:59;37.97;;;22.53;;
38805;SDS011;25635;51.146;17.162;2022-12-01T01:36:25;38.97;;;22.90;;
38805;SDS011;25635;51.146;17.162;2022-12-01T01:38:52;40.17;;;22.80;;
38805;SDS011;25635;51.146;17.162;2022-12-01T01:41:20;39.77;;;23.70;;
38805;SDS011;25635;51.146;17.162;2022-12-01T01:43:48;36.50;;;23.27;;
38805;SDS011;25635;51.146;17.162;2022-12-01T01:46:22;37.03;;;21.70;;
38805;SDS011;25635;51.146;17.162;2022-12-01T01:49:05;41.27;;;23.30;;
38805;SDS011;25635;51.146;17.162;2022-12-01T01:51:41;42.00;;;24.60;;
38805;SDS011;25635;51.146;17.162;2022-12-01T01:54:23;41.43;;;24.53;;
38805;SDS011;25635;51.146;17.162;2022-12-01T01:56:51;40.10;;;22.77;;
38805;SDS011;25635;51.146;17.162;2022-12-01T01:59:22;43.50;;;26.20;;
38805;SDS011;25635;51.146;17.162;2022-12-01T02:01:56;43.20;;;25.33;;
38805;SDS011;25635;51.146;17.162;2022-12-01T02:04:27;43.77;;;24.87;;
38805;SDS011;25635;51.146;17.162;2022-12-01T02:06:55;39.37;;;22.97;;
38805;SDS011;25635;51.146;17.162;2022-12-01T02:09:21;35.97;;;22.33;;
38805;SDS011;25635;51.146;17.162;2022-12-01T02:12:08;37.70;;;22.60;;
38805;SDS011;25635;51.146;17.162;2022-12-01T02:26:05;41.47;;;24.23;;
38805;SDS011;25635;51.146;17.162;2022-12-01T02:38:27;38.87;;;22.83;;
38805;SDS011;25635;51.146;17.162;2022-12-01T02:41:27;45.67;;;25.87;;
38805;SDS011;25635;51.146;17.162;2022-12-01T02:46:58;45.40;;;25.60;;
38805;SDS011;25635;51.146;17.162;2022-12-01T02:49:25;42.60;;;26.00;;
38805;SDS011;25635;51.146;17.162;2022-12-01T02:51:59;38.93;;;24.17;;
38805;SDS011;25635;51.146;17.162;2022-12-01T02:54:28;42.03;;;25.20;;
38805;SDS011;25635;51.146;17.162;2022-12-01T02:56:57;41.97;;;24.70;;
38805;SDS011;25635;51.146;17.162;2022-12-01T02:59:23;40.50;;;24.17;;
38805;SDS011;25635;51.146;17.162;2022-12-01T03:07:38;43.90;;;24.37;;
38805;SDS011;25635;51.146;17.162;2022-12-01T03:19:05;39.37;;;24.13;;
38805;SDS011;25635;51.146;17.162;2022-12-01T03:21:38;40.77;;;24.60;;
38805;SDS011;25635;51.146;17.162;2022-12-01T03:24:38;40.37;;;24.90;;
38805;SDS011;25635;51.146;17.162;2022-12-01T03:27:09;48.57;;;26.40;;
38805;SDS011;25635;51.146;17.162;2022-12-01T03:29:39;44.63;;;27.00;;
38805;SDS011;25635;51.146;17.162;2022-12-01T03:32:17;44.10;;;25.93;;
38805;SDS011;25635;51.146;17.162;2022-12-01T03:34:56;45.60;;;25.10;;
38805;SDS011;25635;51.146;17.162;2022-12-01T03:40:13;48.17;;;26.10;;
38805;SDS011;25635;51.146;17.162;2022-12-01T03:42:45;43.90;;;24.20;;
38805;SDS011;25635;51.146;17.162;2022-12-01T03:45:25;40.23;;;24.20;;
38805;SDS011;25635;51.146;17.162;2022-12-01T03:47:57;41.83;;;24.13;;
38805;SDS011;25635;51.146;17.162;2022-12-01T03:50:26;44.27;;;26.13;;
38805;SDS011;25635;51.146;17.162;2022-12-01T03:55:40;40.67;;;24.13;;
38805;SDS011;25635;51.146;17.162;2022-12-01T03:58:17;49.17;;;25.97;;
38805;SDS011;25635;51.146;17.162;2022-12-01T04:00:43;47.07;;;26.90;;
38805;SDS011;25635;51.146;17.162;2022-12-01T04:03:16;49.13;;;27.37;;
38805;SDS011;25635;51.146;17.162;2022-12-01T04:05:46;46.93;;;27.47;;
38805;SDS011;25635;51.146;17.162;2022-12-01T04:08:12;47.63;;;27.97;;
38805;SDS011;25635;51.146;17.162;2022-12-01T04:10:38;48.57;;;27.13;;
38805;SDS011;25635;51.146;17.162;2022-12-01T04:13:04;46.70;;;26.43;;
38805;SDS011;25635;51.146;17.162;2022-12-01T04:15:32;47.93;;;27.57;;
38805;SDS011;25635;51.146;17.162;2022-12-01T04:17:58;47.60;;;26.83;;
38805;SDS011;25635;51.146;17.162;2022-12-01T04:20:24;52.80;;;29.13;;
38805;SDS011;25635;51.146;17.162;2022-12-01T04:22:51;51.13;;;28.10;;
38805;SDS011;25635;51.146;17.162;2022-12-01T04:25:17;46.53;;;27.00;;
38805;SDS011;25635;51.146;17.162;2022-12-01T04:27:43;47.00;;;27.77;;
38805;SDS011;25635;51.146;17.162;2022-12-01T04:30:09;49.23;;;27.50;;
38805;SDS011;25635;51.146;17.162;2022-12-01T04:32:37;53.80;;;29.27;;
38805;SDS011;25635;51.146;17.162;2022-12-01T04:35:06;50.67;;;28.43;;
38805;SDS011;25635;51.146;17.162;2022-12-01T04:37:35;47.30;;;27.43;;
38805;SDS011;25635;51.146;17.162;2022-12-01T04:40:02;46.10;;;26.40;;
38805;SDS011;25635;51.146;17.162;2022-12-01T04:42:30;45.93;;;26.67;;
38805;SDS011;25635;51.146;17.162;2022-12-01T04:44:57;45.47;;;25.83;;
38805;SDS011;25635;51.146;17.162;2022-12-01T04:47:23;43.77;;;26.57;;
38805;SDS011;25635;51.146;17.162;2022-12-01T04:49:49;43.27;;;26.03;;
38805;SDS011;25635;51.146;17.162;2022-12-01T04:52:16;45.87;;;26.80;;
38805;SDS011;25635;51.146;17.162;2022-12-01T04:54:42;50.27;;;27.93;;
38805;SDS011;25635;51.146;17.162;2022-12-01T04:57:08;49.03;;;27.53;;
38805;SDS011;25635;51.146;17.162;2022-12-01T04:59:34;47.43;;;27.53;;
38805;SDS011;25635;51.146;17.162;2022-12-01T05:02:00;47.47;;;26.67;;
38805;SDS011;25635;51.146;17.162;2022-12-01T05:04:28;48.80;;;27.97;;
38805;SDS011;25635;51.146;17.162;2022-12-01T05:06:57;46.00;;;26.60;;
38805;SDS011;25635;51.146;17.162;2022-12-01T05:09:23;47.00;;;26.90;;
38805;SDS011;25635;51.146;17.162;2022-12-01T05:11:49;46.10;;;27.33;;
38805;SDS011;25635;51.146;17.162;2022-12-01T05:14:15;45.50;;;27.27;;
38805;SDS011;25635;51.146;17.162;2022-12-01T05:16:41;42.13;;;25.43;;
38805;SDS011;25635;51.146;17.162;2022-12-01T05:19:07;50.83;;;29.20;;
38805;SDS011;25635;51.146;17.162;2022-12-01T05:21:52;47.73;;;27.37;;
38805;SDS011;25635;51.146;17.162;2022-12-01T05:24:19;50.77;;;28.77;;
38805;SDS011;25635;51.146;17.162;2022-12-01T05:26:46;47.53;;;27.00;;
38805;SDS011;25635;51.146;17.162;2022-12-01T05:29:13;52.80;;;28.43;;
38805;SDS011;25635;51.146;17.162;2022-12-01T05:31:39;45.67;;;27.93;;
38805;SDS011;25635;51.146;17.162;2022-12-01T05:34:06;51.47;;;28.40;;
38805;SDS011;25635;51.146;17.162;2022-12-01T05:36:32;47.30;;;27.20;;
38805;SDS011;25635;51.146;17.162;2022-12-01T05:38:59;46.50;;;28.00;;
38805;SDS011;25635;51.146;17.162;2022-12-01T05:41:25;47.20;;;26.50;;
38805;SDS011;25635;51.146;17.162;2022-12-01T05:43:51;46.83;;;25.80;;
38805;SDS011;25635;51.146;17.162;2022-12-01T05:46:17;50.57;;;27.40;;
38805;SDS011;25635;51.146;17.162;2022-12-01T05:48:43;47.50;;;27.27;;
38805;SDS011;25635;51.146;17.162;2022-12-01T05:51:10;47.70;;;27.67;;
38805;SDS011;25635;51.146;17.162;2022-12-01T05:53:40;49.07;;;28.10;;
38805;SDS011;25635;51.146;17.162;2022-12-01T05:56:07;46.97;;;27.10;;
38805;SDS011;25635;51.146;17.162;2022-12-01T05:58:34;45.60;;;26.27;;
38805;SDS011;25635;51.146;17.162;2022-12-01T06:01:01;46.83;;;26.77;;
38805;SDS011;25635;51.146;17.162;2022-12-01T06:03:27;47.00;;;26.63;;
38805;SDS011;25635;51.146;17.162;2022-12-01T06:05:54;48.60;;;28.13;;
38805;SDS011;25635;51.146;17.162;2022-12-01T06:08:20;48.60;;;27.80;;
38805;SDS011;25635;51.146;17.162;2022-12-01T06:10:46;49.33;;;27.30;;
38805;SDS011;25635;51.146;17.162;2022-12-01T06:13:13;46.13;;;26.37;;
38805;SDS011;25635;51.146;17.162;2022-12-01T06:15:39;47.20;;;26.40;;
38805;SDS011;25635;51.146;17.162;2022-12-01T06:18:05;46.83;;;26.20;;
38805;SDS011;25635;51.146;17.162;2022-12-01T06:20:32;46.53;;;26.23;;
38805;SDS011;25635;51.146;17.162;2022-12-01T06:22:58;46.10;;;27.57;;
38805;SDS011;25635;51.146;17.162;2022-12-01T06:25:24;44.70;;;25.67;;
38805;SDS011;25635;51.146;17.162;2022-12-01T06:27:54;45.37;;;26.13;;
38805;SDS011;25635;51.146;17.162;2022-12-01T06:30:23;44.37;;;26.40;;
38805;SDS011;25635;51.146;17.162;2022-12-01T06:32:49;46.13;;;26.50;;
38805;SDS011;25635;51.146;17.162;2022-12-01T06:35:16;48.83;;;27.53;;
38805;SDS011;25635;51.146;17.162;2022-12-01T06:37:42;50.70;;;28.27;;
38805;SDS011;25635;51.146;17.162;2022-12-01T06:40:08;47.97;;;27.00;;
38805;SDS011;25635;51.146;17.162;2022-12-01T06:42:36;48.47;;;26.97;;
38805;SDS011;25635;51.146;17.162;2022-12-01T06:45:02;47.20;;;26.87;;
38805;SDS011;25635;51.146;17.162;2022-12-01T06:47:29;46.30;;;26.83;;
38805;SDS011;25635;51.146;17.162;2022-12-01T06:49:56;48.23;;;27.97;;
38805;SDS011;25635;51.146;17.162;2022-12-01T06:52:22;47.40;;;27.20;;
38805;SDS011;25635;51.146;17.162;2022-12-01T06:54:48;47.83;;;27.23;;
38805;SDS011;25635;51.146;17.162;2022-12-01T06:57:14;46.93;;;27.30;;
38805;SDS011;25635;51.146;17.162;2022-12-01T06:59:40;47.73;;;25.17;;
38805;SDS011;25635;51.146;17.162;2022-12-01T07:02:08;45.77;;;25.87;;
38805;SDS011;25635;51.146;17.162;2022-12-01T07:04:36;43.20;;;25.10;;
38805;SDS011;25635;51.146;17.162;2022-12-01T07:07:03;46.23;;;25.93;;
38805;SDS011;25635;51.146;17.162;2022-12-01T07:09:30;42.73;;;25.47;;
38805;SDS011;25635;51.146;17.162;2022-12-01T07:11:56;50.10;;;26.93;;
38805;SDS011;25635;51.146;17.162;2022-12-01T07:14:23;43.07;;;24.33;;
38805;SDS011;25635;51.146;17.162;2022-12-01T07:16:51;51.47;;;26.97;;
38805;SDS011;25635;51.146;17.162;2022-12-01T07:19:17;46.50;;;25.47;;
38805;SDS011;25635;51.146;17.162;2022-12-01T07:21:44;46.40;;;26.93;;
38805;SDS011;25635;51.146;17.162;2022-12-01T07:24:10;45.20;;;26.80;;
38805;SDS011;25635;51.146;17.162;2022-12-01T07:26:37;49.10;;;26.87;;
38805;SDS011;25635;51.146;17.162;2022-12-01T07:29:04;50.90;;;28.50;;
38805;SDS011;25635;51.146;17.162;2022-12-01T07:31:31;57.07;;;30.57;;
38805;SDS011;25635;51.146;17.162;2022-12-01T07:33:57;60.73;;;32.73;;
38805;SDS011;25635;51.146;17.162;2022-12-01T07:36:23;63.50;;;34.60;;
38805;SDS011;25635;51.146;17.162;2022-12-01T07:38:49;65.67;;;35.40;;
38805;SDS011;25635;51.146;17.162;2022-12-01T07:41:18;79.33;;;37.00;;
38805;SDS011;25635;51.146;17.162;2022-12-01T07:43:45;66.40;;;36.13;;
38805;SDS011;25635;51.146;17.162;2022-12-01T07:46:13;66.90;;;36.03;;
38805;SDS011;25635;51.146;17.162;2022-12-01T07:48:45;62.43;;;34.63;;
38805;SDS011;25635;51.146;17.162;2022-12-01T07:51:12;54.43;;;32.00;;
38805;SDS011;25635;51.146;17.162;2022-12-01T07:53:43;53.43;;;31.50;;
38805;SDS011;25635;51.146;17.162;2022-12-01T07:56:11;50.17;;;30.63;;
38805;SDS011;25635;51.146;17.162;2022-12-01T07:58:38;53.07;;;30.73;;
38805;SDS011;25635;51.146;17.162;2022-12-01T08:01:10;56.97;;;32.20;;
38805;SDS011;25635;51.146;17.162;2022-12-01T08:03:36;56.30;;;29.23;;
38805;SDS011;25635;51.146;17.162;2022-12-01T08:06:03;48.47;;;28.53;;
38805;SDS011;25635;51.146;17.162;2022-12-01T08:08:31;49.67;;;28.97;;
38805;SDS011;25635;51.146;17.162;2022-12-01T08:11:00;48.23;;;28.60;;
38805;SDS011;25635;51.146;17.162;2022-12-01T08:13:32;52.70;;;29.00;;
38805;SDS011;25635;51.146;17.162;2022-12-01T08:16:02;51.47;;;29.10;;
38805;SDS011;25635;51.146;17.162;2022-12-01T08:18:32;50.43;;;30.63;;
38805;SDS011;25635;51.146;17.162;2022-12-01T08:21:00;46.00;;;26.40;;
38805;SDS011;25635;51.146;17.162;2022-12-01T08:23:26;50.77;;;28.43;;
38805;SDS011;25635;51.146;17.162;2022-12-01T08:25:52;49.33;;;29.07;;
38805;SDS011;25635;51.146;17.162;2022-12-01T08:28:19;49.23;;;28.10;;
38805;SDS011;25635;51.146;17.162;2022-12-01T08:30:46;47.93;;;28.80;;
38805;SDS011;25635;51.146;17.162;2022-12-01T08:33:12;45.20;;;26.93;;
38805;SDS011;25635;51.146;17.162;2022-12-01T08:35:38;51.97;;;28.07;;
38805;SDS011;25635;51.146;17.162;2022-12-01T08:38:04;45.93;;;27.27;;
38805;SDS011;25635;51.146;17.162;2022-12-01T08:40:30;47.33;;;28.33;;
38805;SDS011;25635;51.146;17.162;2022-12-01T08:42:57;45.13;;;26.87;;
38805;SDS011;25635;51.146;17.162;2022-12-01T08:45:23;46.73;;;26.83;;
38805;SDS011;25635;51.146;17.162;2022-12-01T08:47:49;47.80;;;27.80;;
38805;SDS011;25635;51.146;17.162;2022-12-01T08:50:19;49.87;;;29.47;;
38805;SDS011;25635;51.146;17.162;2022-12-01T08:52:45;48.53;;;28.17;;
38805;SDS011;25635;51.146;17.162;2022-12-01T08:55:11;46.90;;;29.43;;
38805;SDS011;25635;51.146;17.162;2022-12-01T08:57:37;50.10;;;28.33;;
38805;SDS011;25635;51.146;17.162;2022-12-01T09:00:04;47.30;;;27.17;;
38805;SDS011;25635;51.146;17.162;2022-12-01T09:02:32;45.73;;;27.80;;
38805;SDS011;25635;51.146;17.162;2022-12-01T09:04:58;43.70;;;27.07;;
38805;SDS011;25635;51.146;17.162;2022-12-01T09:07:24;47.37;;;28.43;;
38805;SDS011;25635;51.146;17.162;2022-12-01T09:09:50;42.10;;;26.57;;
38805;SDS011;25635;51.146;17.162;2022-12-01T09:12:16;43.97;;;26.70;;
38805;SDS011;25635;51.146;17.162;2022-12-01T09:14:42;48.73;;;29.60;;
38805;SDS011;25635;51.146;17.162;2022-12-01T09:17:11;45.17;;;28.07;;
38805;SDS011;25635;51.146;17.162;2022-12-01T09:19:37;45.73;;;28.83;;
38805;SDS011;25635;51.146;17.162;2022-12-01T09:22:03;47.07;;;27.87;;
38805;SDS011;25635;51.146;17.162;2022-12-01T09:24:29;43.10;;;27.23;;
38805;SDS011;25635;51.146;17.162;2022-12-01T09:26:56;44.30;;;27.73;;
38805;SDS011;25635;51.146;17.162;2022-12-01T09:29:23;45.10;;;26.57;;
38805;SDS011;25635;51.146;17.162;2022-12-01T09:31:53;41.63;;;26.17;;
38805;SDS011;25635;51.146;17.162;2022-12-01T09:34:22;41.20;;;25.90;;
38805;SDS011;25635;51.146;17.162;2022-12-01T09:36:50;40.23;;;25.63;;
38805;SDS011;25635;51.146;17.162;2022-12-01T09:39:23;39.10;;;25.50;;
38805;SDS011;25635;51.146;17.162;2022-12-01T09:47:17;42.97;;;26.20;;
38805;SDS011;25635;51.146;17.162;2022-12-01T09:52:50;41.63;;;25.63;;
38805;SDS011;25635;51.146;17.162;2022-12-01T09:55:22;37.17;;;23.80;;
38805;SDS011;25635;51.146;17.162;2022-12-01T09:57:54;42.23;;;25.07;;
38805;SDS011;25635;51.146;17.162;2022-12-01T10:00:24;39.03;;;23.70;;
38805;SDS011;25635;51.146;17.162;2022-12-01T10:03:02;37.70;;;23.70;;
38805;SDS011;25635;51.146;17.162;2022-12-01T10:06:00;39.40;;;23.53;;
38805;SDS011;25635;51.146;17.162;2022-12-01T10:08:33;36.40;;;22.70;;
38805;SDS011;25635;51.146;17.162;2022-12-01T10:11:23;36.73;;;23.77;;
38805;SDS011;25635;51.146;17.162;2022-12-01T10:13:54;35.87;;;22.57;;
38805;SDS011;25635;51.146;17.162;2022-12-01T10:16:22;38.13;;;22.97;;
38805;SDS011;25635;51.146;17.162;2022-12-01T10:19:38;38.40;;;24.17;;
38805;SDS011;25635;51.146;17.162;2022-12-01T10:24:46;36.93;;;21.93;;
38805;SDS011;25635;51.146;17.162;2022-12-01T10:30:14;35.07;;;22.43;;
38805;SDS011;25635;51.146;17.162;2022-12-01T10:32:50;38.80;;;22.23;;
38805;SDS011;25635;51.146;17.162;2022-12-01T10:35:26;34.43;;;22.23;;
38805;SDS011;25635;51.146;17.162;2022-12-01T10:37:57;33.97;;;22.27;;
38805;SDS011;25635;51.146;17.162;2022-12-01T10:40:27;32.93;;;21.20;;
38805;SDS011;25635;51.146;17.162;2022-12-01T10:42:53;36.47;;;22.50;;
38805;SDS011;25635;51.146;17.162;2022-12-01T10:45:21;36.60;;;23.50;;
38805;SDS011;25635;51.146;17.162;2022-12-01T10:48:17;37.57;;;24.17;;
38805;SDS011;25635;51.146;17.162;2022-12-01T10:50:44;38.17;;;23.37;;
38805;SDS011;25635;51.146;17.162;2022-12-01T10:56:01;37.87;;;23.10;;
38805;SDS011;25635;51.146;17.162;2022-12-01T10:58:53;35.77;;;22.67;;
38805;SDS011;25635;51.146;17.162;2022-12-01T11:01:27;36.77;;;23.07;;
38805;SDS011;25635;51.146;17.162;2022-12-01T11:03:56;35.70;;;21.90;;
38805;SDS011;25635;51.146;17.162;2022-12-01T11:06:26;36.93;;;22.80;;
38805;SDS011;25635;51.146;17.162;2022-12-01T11:08:58;37.23;;;23.37;;
38805;SDS011;25635;51.146;17.162;2022-12-01T11:11:33;35.37;;;22.37;;
38805;SDS011;25635;51.146;17.162;2022-12-01T11:14:04;33.43;;;21.73;;
38805;SDS011;25635;51.146;17.162;2022-12-01T11:16:43;37.07;;;22.67;;
38805;SDS011;25635;51.146;17.162;2022-12-01T11:19:32;36.77;;;23.47;;
38805;SDS011;25635;51.146;17.162;2022-12-01T11:22:19;36.93;;;22.93;;
38805;SDS011;25635;51.146;17.162;2022-12-01T11:27:27;38.00;;;22.60;;
38805;SDS011;25635;51.146;17.162;2022-12-01T11:30:03;35.47;;;22.30;;
38805;SDS011;25635;51.146;17.162;2022-12-01T11:32:33;37.27;;;23.27;;
38805;SDS011;25635;51.146;17.162;2022-12-01T11:35:13;34.67;;;21.70;;
38805;SDS011;25635;51.146;17.162;2022-12-01T11:37:49;34.23;;;21.37;;
38805;SDS011;25635;51.146;17.162;2022-12-01T11:40:20;34.20;;;21.73;;
38805;SDS011;25635;51.146;17.162;2022-12-01T11:42:58;33.60;;;21.23;;
38805;SDS011;25635;51.146;17.162;2022-12-01T11:45:37;37.27;;;22.27;;
38805;SDS011;25635;51.146;17.162;2022-12-01T11:51:32;36.63;;;23.47;;
38805;SDS011;25635;51.146;17.162;2022-12-01T11:53:38;37.10;;;23.17;;
38805;SDS011;25635;51.146;17.162;2022-12-01T11:58:46;33.87;;;21.93;;
38805;SDS011;25635;51.146;17.162;2022-12-01T12:10:16;31.37;;;19.57;;
38805;SDS011;25635;51.146;17.162;2022-12-01T12:18:45;37.10;;;22.33;;
38805;SDS011;25635;51.146;17.162;2022-12-01T12:24:31;35.60;;;21.80;;
38805;SDS011;25635;51.146;17.162;2022-12-01T12:27:34;33.73;;;20.03;;
38805;SDS011;25635;51.146;17.162;2022-12-01T12:30:37;30.90;;;19.47;;
38805;SDS011;25635;51.146;17.162;2022-12-01T12:33:51;30.97;;;18.87;;
38805;SDS011;25635;51.146;17.162;2022-12-01T12:36:13;32.03;;;18.37;;
38805;SDS011;25635;51.146;17.162;2022-12-01T12:51:00;35.97;;;23.20;;
38805;SDS011;25635;51.146;17.162;2022-12-01T12:53:37;32.33;;;20.32;;
38805;SDS011;25635;51.146;17.162;2022-12-01T12:56:11;32.30;;;19.73;;
38805;SDS011;25635;51.146;17.162;2022-12-01T12:58:51;28.10;;;17.63;;
38805;SDS011;25635;51.146;17.162;2022-12-01T13:01:35;28.60;;;17.73;;
38805;SDS011;25635;51.146;17.162;2022-12-01T13:04:12;26.73;;;16.67;;
38805;SDS011;25635;51.146;17.162;2022-12-01T13:09:44;23.90;;;16.07;;
38805;SDS011;25635;51.146;17.162;2022-12-01T13:12:27;24.80;;;16.10;;
38805;SDS011;25635;51.146;17.162;2022-12-01T13:15:14;27.80;;;17.33;;
38805;SDS011;25635;51.146;17.162;2022-12-01T13:17:50;25.73;;;17.13;;
38805;SDS011;25635;51.146;17.162;2022-12-01T13:20:24;26.00;;;15.93;;
38805;SDS011;25635;51.146;17.162;2022-12-01T13:22:53;19.70;;;13.60;;
38805;SDS011;25635;51.146;17.162;2022-12-01T13:25:31;19.67;;;13.03;;
38805;SDS011;25635;51.146;17.162;2022-12-01T13:28:00;18.27;;;11.90;;
38805;SDS011;25635;51.146;17.162;2022-12-01T13:30:28;19.20;;;12.57;;
38805;SDS011;25635;51.146;17.162;2022-12-01T13:32:58;18.43;;;12.53;;
38805;SDS011;25635;51.146;17.162;2022-12-01T13:35:29;19.43;;;12.73;;
38805;SDS011;25635;51.146;17.162;2022-12-01T13:41:20;19.00;;;12.57;;
38805;SDS011;25635;51.146;17.162;2022-12-01T13:44:05;20.37;;;13.60;;
38805;SDS011;25635;51.146;17.162;2022-12-01T13:49:52;22.83;;;13.30;;
38805;SDS011;25635;51.146;17.162;2022-12-01T14:00:26;20.40;;;14.20;;
38805;SDS011;25635;51.146;17.162;2022-12-01T14:05:45;23.60;;;16.10;;
38805;SDS011;25635;51.146;17.162;2022-12-01T14:08:27;25.90;;;17.13;;
38805;SDS011;25635;51.146;17.162;2022-12-01T14:11:02;30.17;;;17.40;;
38805;SDS011;25635;51.146;17.162;2022-12-01T14:13:32;23.73;;;15.73;;
38805;SDS011;25635;51.146;17.162;2022-12-01T14:16:03;21.53;;;14.80;;
38805;SDS011;25635;51.146;17.162;2022-12-01T14:18:38;21.67;;;13.60;;
38805;SDS011;25635;51.146;17.162;2022-12-01T14:21:08;22.27;;;14.13;;
38805;SDS011;25635;51.146;17.162;2022-12-01T14:26:29;22.73;;;14.30;;
38805;SDS011;25635;51.146;17.162;2022-12-01T14:34:18;20.63;;;14.33;;
38805;SDS011;25635;51.146;17.162;2022-12-01T14:36:52;23.17;;;14.70;;
38805;SDS011;25635;51.146;17.162;2022-12-01T14:39:33;21.70;;;14.43;;
38805;SDS011;25635;51.146;17.162;2022-12-01T14:42:11;19.97;;;14.07;;
38805;SDS011;25635;51.146;17.162;2022-12-01T14:44:41;21.60;;;14.07;;
38805;SDS011;25635;51.146;17.162;2022-12-01T14:47:37;22.47;;;13.63;;
38805;SDS011;25635;51.146;17.162;2022-12-01T14:52:46;20.33;;;12.73;;
38805;SDS011;25635;51.146;17.162;2022-12-01T14:55:26;19.93;;;13.37;;
38805;SDS011;25635;51.146;17.162;2022-12-01T14:58:06;19.20;;;12.97;;
38805;SDS011;25635;51.146;17.162;2022-12-01T15:00:48;19.37;;;13.20;;
38805;SDS011;25635;51.146;17.162;2022-12-01T15:03:16;21.23;;;13.83;;
38805;SDS011;25635;51.146;17.162;2022-12-01T15:05:42;22.63;;;13.97;;
38805;SDS011;25635;51.146;17.162;2022-12-01T15:08:13;24.23;;;14.60;;
38805;SDS011;25635;51.146;17.162;2022-12-01T15:10:50;20.50;;;13.97;;
38805;SDS011;25635;51.146;17.162;2022-12-01T15:16:16;20.20;;;13.17;;
38805;SDS011;25635;51.146;17.162;2022-12-01T15:18:46;20.63;;;12.67;;
38805;SDS011;25635;51.146;17.162;2022-12-01T15:21:21;18.37;;;12.27;;
38805;SDS011;25635;51.146;17.162;2022-12-01T15:26:49;18.10;;;11.90;;
38805;SDS011;25635;51.146;17.162;2022-12-01T15:29:24;18.12;;;12.40;;
38805;SDS011;25635;51.146;17.162;2022-12-01T15:32:04;18.70;;;12.40;;
38805;SDS011;25635;51.146;17.162;2022-12-01T15:34:44;21.20;;;13.70;;
38805;SDS011;25635;51.146;17.162;2022-12-01T15:37:12;21.47;;;13.40;;
38805;SDS011;25635;51.146;17.162;2022-12-01T15:39:51;20.77;;;12.87;;
38805;SDS011;25635;51.146;17.162;2022-12-01T15:47:50;22.33;;;12.73;;
38805;SDS011;25635;51.146;17.162;2022-12-01T15:50:35;20.40;;;12.37;;
38805;SDS011;25635;51.146;17.162;2022-12-01T15:53:05;18.77;;;12.57;;
38805;SDS011;25635;51.146;17.162;2022-12-01T15:55:48;18.60;;;12.57;;
38805;SDS011;25635;51.146;17.162;2022-12-01T15:58:20;19.70;;;12.07;;
38805;SDS011;25635;51.146;17.162;2022-12-01T16:01:00;20.50;;;12.73;;
38805;SDS011;25635;51.146;17.162;2022-12-01T16:03:34;22.07;;;13.37;;
38805;SDS011;25635;51.146;17.162;2022-12-01T16:06:17;19.00;;;12.83;;
38805;SDS011;25635;51.146;17.162;2022-12-01T16:08:55;20.63;;;13.43;;
38805;SDS011;25635;51.146;17.162;2022-12-01T16:11:25;20.33;;;13.23;;
38805;SDS011;25635;51.146;17.162;2022-12-01T16:14:19;19.87;;;12.90;;
38805;SDS011;25635;51.146;17.162;2022-12-01T16:16:50;21.23;;;13.40;;
38805;SDS011;25635;51.146;17.162;2022-12-01T16:21:56;20.17;;;12.40;;
38805;SDS011;25635;51.146;17.162;2022-12-01T16:24:54;18.90;;;11.63;;
38805;SDS011;25635;51.146;17.162;2022-12-01T16:27:21;19.67;;;11.97;;
38805;SDS011;25635;51.146;17.162;2022-12-01T16:29:55;20.67;;;12.43;;
38805;SDS011;25635;51.146;17.162;2022-12-01T16:32:35;21.47;;;12.40;;
38805;SDS011;25635;51.146;17.162;2022-12-01T16:35:05;19.60;;;13.13;;
38805;SDS011;25635;51.146;17.162;2022-12-01T16:37:47;22.70;;;14.17;;
38805;SDS011;25635;51.146;17.162;2022-12-01T16:40:14;22.80;;;14.70;;
38805;SDS011;25635;51.146;17.162;2022-12-01T16:42:41;21.93;;;13.47;;
38805;SDS011;25635;51.146;17.162;2022-12-01T16:45:09;21.80;;;12.97;;
38805;SDS011;25635;51.146;17.162;2022-12-01T16:47:42;19.23;;;13.10;;
38805;SDS011;25635;51.146;17.162;2022-12-01T16:50:14;20.07;;;12.67;;
38805;SDS011;25635;51.146;17.162;2022-12-01T16:52:44;19.70;;;13.27;;
38805;SDS011;25635;51.146;17.162;2022-12-01T16:58:22;19.93;;;12.97;;